sensor_id;sensor_type;location;lat;lon;timestamp;P1;durP1;ratioP1;P2;durP2;ratioP2
37781;SDS011;23621;50.878;4.584;2023-04-28T00:00:51;23.23;;;16.90;;
37781;SDS011;23621;50.878;4.584;2023-04-28T00:03:39;21.75;;;16.92;;
37781;SDS011;23621;50.878;4.584;2023-04-28T00:06:27;22.00;;;16.35;;
37781;SDS011;23621;50.878;4.584;2023-04-28T00:09:14;22.02;;;17.30;;
37781;SDS011;23621;50.878;4.584;2023-04-28T00:12:01;22.65;;;16.88;;
37781;SDS011;23621;50.878;4.584;2023-04-28T00:14:49;22.20;;;16.40;;
37781;SDS011;23621;50.878;4.584;2023-04-28T00:17:36;19.50;;;16.35;;
37781;SDS011;23621;50.878;4.584;2023-04-28T00:20:24;19.15;;;16.48;;
37781;SDS011;23621;50.878;4.584;2023-04-28T00:23:11;23.60;;;17.73;;
37781;SDS011;23621;50.878;4.584;2023-04-28T00:25:58;19.98;;;16.88;;
37781;SDS011;23621;50.878;4.584;2023-04-28T00:28:46;21.10;;;17.33;;
37781;SDS011;23621;50.878;4.584;2023-04-28T00:31:33;22.75;;;17.08;;
37781;SDS011;23621;50.878;4.584;2023-04-28T00:34:21;21.42;;;17.35;;
37781;SDS011;23621;50.878;4.584;2023-04-28T00:37:08;23.38;;;17.80;;
37781;SDS011;23621;50.878;4.584;2023-04-28T00:39:55;24.10;;;17.48;;
37781;SDS011;23621;50.878;4.584;2023-04-28T00:42:43;21.85;;;17.27;;
37781;SDS011;23621;50.878;4.584;2023-04-28T00:45:30;22.77;;;18.42;;
37781;SDS011;23621;50.878;4.584;2023-04-28T00:48:18;23.13;;;17.77;;
37781;SDS011;23621;50.878;4.584;2023-04-28T00:51:05;23.27;;;17.67;;
37781;SDS011;23621;50.878;4.584;2023-04-28T00:53:53;24.15;;;18.67;;
37781;SDS011;23621;50.878;4.584;2023-04-28T00:56:42;25.08;;;18.33;;
37781;SDS011;23621;50.878;4.584;2023-04-28T00:59:30;21.85;;;18.95;;
37781;SDS011;23621;50.878;4.584;2023-04-28T01:02:17;24.17;;;18.40;;
37781;SDS011;23621;50.878;4.584;2023-04-28T01:05:05;21.85;;;17.63;;
37781;SDS011;23621;50.878;4.584;2023-04-28T01:07:55;22.25;;;18.67;;
37781;SDS011;23621;50.878;4.584;2023-04-28T01:10:42;24.88;;;18.85;;
37781;SDS011;23621;50.878;4.584;2023-04-28T01:13:30;24.73;;;19.58;;
37781;SDS011;23621;50.878;4.584;2023-04-28T01:16:18;22.95;;;18.60;;
37781;SDS011;23621;50.878;4.584;2023-04-28T01:19:06;21.55;;;18.10;;
37781;SDS011;23621;50.878;4.584;2023-04-28T01:21:57;22.65;;;18.25;;
37781;SDS011;23621;50.878;4.584;2023-04-28T01:24:44;24.08;;;19.23;;
37781;SDS011;23621;50.878;4.584;2023-04-28T01:27:31;25.92;;;19.73;;
37781;SDS011;23621;50.878;4.584;2023-04-28T01:30:18;22.98;;;18.23;;
37781;SDS011;23621;50.878;4.584;2023-04-28T01:33:06;24.80;;;19.02;;
37781;SDS011;23621;50.878;4.584;2023-04-28T01:35:56;23.00;;;18.52;;
37781;SDS011;23621;50.878;4.584;2023-04-28T01:38:44;25.27;;;18.27;;
37781;SDS011;23621;50.878;4.584;2023-04-28T01:41:31;21.33;;;17.80;;
37781;SDS011;23621;50.878;4.584;2023-04-28T01:44:22;23.80;;;17.33;;
37781;SDS011;23621;50.878;4.584;2023-04-28T01:47:09;21.48;;;17.77;;
37781;SDS011;23621;50.878;4.584;2023-04-28T01:49:56;21.85;;;17.10;;
37781;SDS011;23621;50.878;4.584;2023-04-28T01:52:43;22.52;;;16.73;;
37781;SDS011;23621;50.878;4.584;2023-04-28T01:55:31;20.73;;;17.45;;
37781;SDS011;23621;50.878;4.584;2023-04-28T01:58:18;22.67;;;17.08;;
37781;SDS011;23621;50.878;4.584;2023-04-28T02:01:05;28.10;;;18.77;;
37781;SDS011;23621;50.878;4.584;2023-04-28T02:03:53;23.80;;;18.75;;
37781;SDS011;23621;50.878;4.584;2023-04-28T02:06:41;22.80;;;17.92;;
37781;SDS011;23621;50.878;4.584;2023-04-28T02:09:28;24.13;;;18.17;;
37781;SDS011;23621;50.878;4.584;2023-04-28T02:12:16;21.33;;;16.40;;
37781;SDS011;23621;50.878;4.584;2023-04-28T02:15:03;20.40;;;17.00;;
37781;SDS011;23621;50.878;4.584;2023-04-28T02:17:51;22.58;;;17.25;;
37781;SDS011;23621;50.878;4.584;2023-04-28T02:20:39;23.55;;;17.45;;
37781;SDS011;23621;50.878;4.584;2023-04-28T02:23:26;22.67;;;18.60;;
37781;SDS011;23621;50.878;4.584;2023-04-28T02:26:14;23.98;;;18.05;;
37781;SDS011;23621;50.878;4.584;2023-04-28T02:29:02;20.83;;;17.20;;
37781;SDS011;23621;50.878;4.584;2023-04-28T02:31:50;22.40;;;18.30;;
37781;SDS011;23621;50.878;4.584;2023-04-28T02:34:37;25.48;;;18.17;;
37781;SDS011;23621;50.878;4.584;2023-04-28T02:37:25;24.08;;;18.98;;
37781;SDS011;23621;50.878;4.584;2023-04-28T02:40:12;25.85;;;19.80;;
37781;SDS011;23621;50.878;4.584;2023-04-28T02:43:00;25.70;;;19.48;;
37781;SDS011;23621;50.878;4.584;2023-04-28T02:45:47;25.73;;;19.85;;
37781;SDS011;23621;50.878;4.584;2023-04-28T02:48:35;22.95;;;18.77;;
37781;SDS011;23621;50.878;4.584;2023-04-28T02:51:22;23.60;;;18.92;;
37781;SDS011;23621;50.878;4.584;2023-04-28T02:54:10;27.15;;;20.10;;
37781;SDS011;23621;50.878;4.584;2023-04-28T02:56:57;29.35;;;19.70;;
37781;SDS011;23621;50.878;4.584;2023-04-28T02:59:44;22.92;;;19.00;;
37781;SDS011;23621;50.878;4.584;2023-04-28T03:02:32;26.15;;;20.67;;
37781;SDS011;23621;50.878;4.584;2023-04-28T03:05:19;24.63;;;19.38;;
37781;SDS011;23621;50.878;4.584;2023-04-28T03:08:06;24.90;;;19.40;;
37781;SDS011;23621;50.878;4.584;2023-04-28T03:10:54;22.77;;;18.75;;
37781;SDS011;23621;50.878;4.584;2023-04-28T03:13:41;25.20;;;19.52;;
37781;SDS011;23621;50.878;4.584;2023-04-28T03:16:28;28.25;;;19.40;;
37781;SDS011;23621;50.878;4.584;2023-04-28T03:19:16;22.83;;;18.20;;
37781;SDS011;23621;50.878;4.584;2023-04-28T03:22:03;21.23;;;17.88;;
37781;SDS011;23621;50.878;4.584;2023-04-28T03:24:50;23.27;;;18.13;;
37781;SDS011;23621;50.878;4.584;2023-04-28T03:27:37;24.75;;;18.77;;
37781;SDS011;23621;50.878;4.584;2023-04-28T03:30:25;24.98;;;18.52;;
37781;SDS011;23621;50.878;4.584;2023-04-28T03:33:13;24.85;;;18.20;;
37781;SDS011;23621;50.878;4.584;2023-04-28T03:36:00;23.02;;;18.65;;
37781;SDS011;23621;50.878;4.584;2023-04-28T03:38:48;26.80;;;19.35;;
37781;SDS011;23621;50.878;4.584;2023-04-28T03:41:35;24.73;;;18.98;;
37781;SDS011;23621;50.878;4.584;2023-04-28T03:44:22;23.83;;;18.17;;
37781;SDS011;23621;50.878;4.584;2023-04-28T03:47:10;24.50;;;18.70;;
37781;SDS011;23621;50.878;4.584;2023-04-28T03:49:57;24.15;;;19.02;;
37781;SDS011;23621;50.878;4.584;2023-04-28T03:52:44;23.05;;;18.50;;
37781;SDS011;23621;50.878;4.584;2023-04-28T03:55:32;24.08;;;18.98;;
37781;SDS011;23621;50.878;4.584;2023-04-28T03:58:19;24.55;;;18.10;;
37781;SDS011;23621;50.878;4.584;2023-04-28T04:01:06;22.50;;;17.95;;
37781;SDS011;23621;50.878;4.584;2023-04-28T04:03:53;24.67;;;17.58;;
37781;SDS011;23621;50.878;4.584;2023-04-28T04:06:41;25.60;;;18.95;;
37781;SDS011;23621;50.878;4.584;2023-04-28T04:09:28;26.08;;;18.77;;
37781;SDS011;23621;50.878;4.584;2023-04-28T04:12:16;28.33;;;20.38;;
37781;SDS011;23621;50.878;4.584;2023-04-28T04:15:03;23.55;;;19.52;;
37781;SDS011;23621;50.878;4.584;2023-04-28T04:17:51;25.25;;;19.33;;
37781;SDS011;23621;50.878;4.584;2023-04-28T04:20:38;25.63;;;19.50;;
37781;SDS011;23621;50.878;4.584;2023-04-28T04:23:25;24.83;;;19.40;;
37781;SDS011;23621;50.878;4.584;2023-04-28T04:26:13;25.48;;;18.88;;
37781;SDS011;23621;50.878;4.584;2023-04-28T04:29:00;23.52;;;18.27;;
37781;SDS011;23621;50.878;4.584;2023-04-28T04:31:47;22.38;;;19.40;;
37781;SDS011;23621;50.878;4.584;2023-04-28T04:34:35;23.83;;;18.60;;
37781;SDS011;23621;50.878;4.584;2023-04-28T04:37:22;23.90;;;19.85;;
37781;SDS011;23621;50.878;4.584;2023-04-28T04:40:10;24.10;;;19.58;;
37781;SDS011;23621;50.878;4.584;2023-04-28T04:42:57;26.48;;;20.00;;
37781;SDS011;23621;50.878;4.584;2023-04-28T04:45:45;28.00;;;20.23;;
37781;SDS011;23621;50.878;4.584;2023-04-28T04:48:32;25.10;;;19.90;;
37781;SDS011;23621;50.878;4.584;2023-04-28T04:51:20;23.98;;;19.98;;
37781;SDS011;23621;50.878;4.584;2023-04-28T04:54:07;23.80;;;19.48;;
37781;SDS011;23621;50.878;4.584;2023-04-28T04:56:54;25.00;;;20.45;;
37781;SDS011;23621;50.878;4.584;2023-04-28T04:59:42;25.52;;;19.77;;
37781;SDS011;23621;50.878;4.584;2023-04-28T05:02:31;24.25;;;19.73;;
37781;SDS011;23621;50.878;4.584;2023-04-28T05:05:19;25.77;;;19.77;;
37781;SDS011;23621;50.878;4.584;2023-04-28T05:08:08;25.42;;;20.00;;
37781;SDS011;23621;50.878;4.584;2023-04-28T05:10:56;26.88;;;19.95;;
37781;SDS011;23621;50.878;4.584;2023-04-28T05:13:43;25.15;;;19.90;;
37781;SDS011;23621;50.878;4.584;2023-04-28T05:16:30;26.17;;;20.52;;
37781;SDS011;23621;50.878;4.584;2023-04-28T05:19:18;26.42;;;20.95;;
37781;SDS011;23621;50.878;4.584;2023-04-28T05:22:05;25.73;;;19.92;;
37781;SDS011;23621;50.878;4.584;2023-04-28T05:24:53;25.45;;;21.08;;
37781;SDS011;23621;50.878;4.584;2023-04-28T05:27:40;23.58;;;19.52;;
37781;SDS011;23621;50.878;4.584;2023-04-28T05:30:27;26.40;;;20.08;;
37781;SDS011;23621;50.878;4.584;2023-04-28T05:33:14;25.33;;;20.13;;
37781;SDS011;23621;50.878;4.584;2023-04-28T05:36:01;27.13;;;20.52;;
37781;SDS011;23621;50.878;4.584;2023-04-28T05:38:49;29.33;;;20.83;;
37781;SDS011;23621;50.878;4.584;2023-04-28T05:41:37;29.50;;;20.42;;
37781;SDS011;23621;50.878;4.584;2023-04-28T05:44:24;26.75;;;20.30;;
37781;SDS011;23621;50.878;4.584;2023-04-28T05:47:11;25.50;;;20.23;;
37781;SDS011;23621;50.878;4.584;2023-04-28T05:49:59;28.45;;;21.58;;
37781;SDS011;23621;50.878;4.584;2023-04-28T05:52:46;25.75;;;20.77;;
37781;SDS011;23621;50.878;4.584;2023-04-28T05:55:33;27.00;;;20.70;;
37781;SDS011;23621;50.878;4.584;2023-04-28T05:58:22;25.98;;;19.75;;
37781;SDS011;23621;50.878;4.584;2023-04-28T06:01:09;25.20;;;20.15;;
37781;SDS011;23621;50.878;4.584;2023-04-28T06:03:57;24.98;;;19.98;;
37781;SDS011;23621;50.878;4.584;2023-04-28T06:06:45;27.35;;;19.75;;
37781;SDS011;23621;50.878;4.584;2023-04-28T06:09:32;24.38;;;18.85;;
37781;SDS011;23621;50.878;4.584;2023-04-28T06:12:20;21.85;;;17.42;;
37781;SDS011;23621;50.878;4.584;2023-04-28T06:15:07;22.00;;;17.33;;
37781;SDS011;23621;50.878;4.584;2023-04-28T06:17:54;19.23;;;15.25;;
37781;SDS011;23621;50.878;4.584;2023-04-28T06:20:44;20.45;;;15.93;;
37781;SDS011;23621;50.878;4.584;2023-04-28T06:23:31;20.27;;;15.48;;
37781;SDS011;23621;50.878;4.584;2023-04-28T06:26:19;23.25;;;16.98;;
37781;SDS011;23621;50.878;4.584;2023-04-28T06:29:06;17.27;;;13.90;;
37781;SDS011;23621;50.878;4.584;2023-04-28T06:31:53;18.10;;;14.15;;
37781;SDS011;23621;50.878;4.584;2023-04-28T06:34:43;15.07;;;11.93;;
37781;SDS011;23621;50.878;4.584;2023-04-28T06:37:30;13.40;;;10.98;;
37781;SDS011;23621;50.878;4.584;2023-04-28T06:40:18;10.88;;;9.15;;
37781;SDS011;23621;50.878;4.584;2023-04-28T06:43:05;8.43;;;7.13;;
37781;SDS011;23621;50.878;4.584;2023-04-28T06:45:52;7.60;;;6.85;;
37781;SDS011;23621;50.878;4.584;2023-04-28T06:48:40;9.45;;;7.30;;
37781;SDS011;23621;50.878;4.584;2023-04-28T06:51:27;7.68;;;6.28;;
37781;SDS011;23621;50.878;4.584;2023-04-28T06:54:15;5.97;;;5.40;;
37781;SDS011;23621;50.878;4.584;2023-04-28T06:57:03;6.28;;;5.65;;
37781;SDS011;23621;50.878;4.584;2023-04-28T06:59:51;5.53;;;5.03;;
37781;SDS011;23621;50.878;4.584;2023-04-28T07:02:38;5.57;;;4.93;;
37781;SDS011;23621;50.878;4.584;2023-04-28T07:05:26;5.60;;;5.10;;
37781;SDS011;23621;50.878;4.584;2023-04-28T07:08:14;5.70;;;5.10;;
37781;SDS011;23621;50.878;4.584;2023-04-28T07:11:03;5.00;;;4.55;;
37781;SDS011;23621;50.878;4.584;2023-04-28T07:13:50;5.05;;;4.53;;
37781;SDS011;23621;50.878;4.584;2023-04-28T07:16:38;7.28;;;5.35;;
37781;SDS011;23621;50.878;4.584;2023-04-28T07:19:25;5.15;;;4.75;;
37781;SDS011;23621;50.878;4.584;2023-04-28T07:22:12;4.82;;;4.43;;
37781;SDS011;23621;50.878;4.584;2023-04-28T07:24:59;5.70;;;5.20;;
37781;SDS011;23621;50.878;4.584;2023-04-28T07:27:47;4.93;;;4.47;;
37781;SDS011;23621;50.878;4.584;2023-04-28T07:30:34;4.00;;;3.60;;
37781;SDS011;23621;50.878;4.584;2023-04-28T07:33:22;5.07;;;4.60;;
37781;SDS011;23621;50.878;4.584;2023-04-28T07:36:09;5.50;;;5.00;;
37781;SDS011;23621;50.878;4.584;2023-04-28T07:38:58;3.80;;;3.50;;
37781;SDS011;23621;50.878;4.584;2023-04-28T07:41:46;3.92;;;3.58;;
37781;SDS011;23621;50.878;4.584;2023-04-28T07:44:34;4.68;;;4.28;;
37781;SDS011;23621;50.878;4.584;2023-04-28T07:47:21;4.03;;;3.72;;
37781;SDS011;23621;50.878;4.584;2023-04-28T07:50:10;4.82;;;4.30;;
37781;SDS011;23621;50.878;4.584;2023-04-28T07:52:58;4.30;;;3.85;;
37781;SDS011;23621;50.878;4.584;2023-04-28T07:55:45;4.13;;;3.80;;
37781;SDS011;23621;50.878;4.584;2023-04-28T07:58:32;4.15;;;3.85;;
37781;SDS011;23621;50.878;4.584;2023-04-28T08:01:19;3.92;;;3.63;;
37781;SDS011;23621;50.878;4.584;2023-04-28T08:04:07;4.68;;;3.80;;
37781;SDS011;23621;50.878;4.584;2023-04-28T08:06:55;5.03;;;4.63;;
37781;SDS011;23621;50.878;4.584;2023-04-28T08:09:42;4.22;;;3.92;;
37781;SDS011;23621;50.878;4.584;2023-04-28T08:12:33;4.05;;;3.65;;
37781;SDS011;23621;50.878;4.584;2023-04-28T08:15:21;3.97;;;3.58;;
37781;SDS011;23621;50.878;4.584;2023-04-28T08:18:08;3.60;;;3.30;;
37781;SDS011;23621;50.878;4.584;2023-04-28T08:20:55;3.60;;;3.35;;
37781;SDS011;23621;50.878;4.584;2023-04-28T08:23:43;3.47;;;3.17;;
37781;SDS011;23621;50.878;4.584;2023-04-28T08:26:32;2.85;;;2.65;;
37781;SDS011;23621;50.878;4.584;2023-04-28T08:29:19;2.80;;;2.60;;
37781;SDS011;23621;50.878;4.584;2023-04-28T08:32:08;2.60;;;2.40;;
37781;SDS011;23621;50.878;4.584;2023-04-28T08:34:55;2.55;;;2.35;;
37781;SDS011;23621;50.878;4.584;2023-04-28T08:37:42;2.40;;;2.28;;
37781;SDS011;23621;50.878;4.584;2023-04-28T08:40:31;2.47;;;2.28;;
37781;SDS011;23621;50.878;4.584;2023-04-28T08:43:18;2.20;;;2.00;;
37781;SDS011;23621;50.878;4.584;2023-04-28T08:46:07;2.45;;;2.25;;
37781;SDS011;23621;50.878;4.584;2023-04-28T08:48:59;1.80;;;1.70;;
37781;SDS011;23621;50.878;4.584;2023-04-28T08:51:50;1.90;;;1.80;;
37781;SDS011;23621;50.878;4.584;2023-04-28T08:54:42;2.08;;;1.90;;
37781;SDS011;23621;50.878;4.584;2023-04-28T08:57:34;1.50;;;1.50;;
37781;SDS011;23621;50.878;4.584;2023-04-28T09:00:27;1.80;;;1.70;;
37781;SDS011;23621;50.878;4.584;2023-04-28T09:03:14;1.20;;;1.20;;
37781;SDS011;23621;50.878;4.584;2023-04-28T09:06:01;1.13;;;1.13;;
37781;SDS011;23621;50.878;4.584;2023-04-28T09:08:49;1.30;;;1.20;;
37781;SDS011;23621;50.878;4.584;2023-04-28T09:11:36;1.75;;;1.38;;
37781;SDS011;23621;50.878;4.584;2023-04-28T09:14:41;1.10;;;1.10;;
37781;SDS011;23621;50.878;4.584;2023-04-28T09:17:28;1.20;;;1.10;;
37781;SDS011;23621;50.878;4.584;2023-04-28T09:20:18;1.20;;;1.15;;
37781;SDS011;23621;50.878;4.584;2023-04-28T09:26:07;1.20;;;1.20;;
37781;SDS011;23621;50.878;4.584;2023-04-28T09:29:09;1.10;;;1.10;;
37781;SDS011;23621;50.878;4.584;2023-04-28T09:32:11;1.20;;;1.10;;
37781;SDS011;23621;50.878;4.584;2023-04-28T09:35:00;1.20;;;1.20;;
37781;SDS011;23621;50.878;4.584;2023-04-28T09:37:56;0.95;;;0.95;;
37781;SDS011;23621;50.878;4.584;2023-04-28T09:41:02;0.93;;;0.90;;
37781;SDS011;23621;50.878;4.584;2023-04-28T09:43:50;0.95;;;0.95;;
37781;SDS011;23621;50.878;4.584;2023-04-28T09:46:37;1.95;;;1.17;;
37781;SDS011;23621;50.878;4.584;2023-04-28T09:49:25;1.30;;;1.20;;
37781;SDS011;23621;50.878;4.584;2023-04-28T09:52:12;1.80;;;1.70;;
37781;SDS011;23621;50.878;4.584;2023-04-28T09:55:00;2.20;;;2.00;;
37781;SDS011;23621;50.878;4.584;2023-04-28T09:57:48;2.25;;;2.05;;
37781;SDS011;23621;50.878;4.584;2023-04-28T10:00:39;2.50;;;2.30;;
37781;SDS011;23621;50.878;4.584;2023-04-28T10:03:30;3.17;;;2.22;;
37781;SDS011;23621;50.878;4.584;2023-04-28T10:06:17;2.50;;;2.30;;
37781;SDS011;23621;50.878;4.584;2023-04-28T10:09:05;2.90;;;2.70;;
37781;SDS011;23621;50.878;4.584;2023-04-28T10:11:53;2.92;;;2.72;;
37781;SDS011;23621;50.878;4.584;2023-04-28T10:14:41;3.22;;;2.80;;
37781;SDS011;23621;50.878;4.584;2023-04-28T10:17:30;3.60;;;3.20;;
37781;SDS011;23621;50.878;4.584;2023-04-28T10:20:18;2.60;;;2.40;;
37781;SDS011;23621;50.878;4.584;2023-04-28T10:26:12;4.63;;;4.22;;
37781;SDS011;23621;50.878;4.584;2023-04-28T10:29:01;4.03;;;3.63;;
37781;SDS011;23621;50.878;4.584;2023-04-28T10:40:54;2.33;;;2.15;;
37781;SDS011;23621;50.878;4.584;2023-04-28T10:43:48;2.20;;;2.10;;
37781;SDS011;23621;50.878;4.584;2023-04-28T10:55:31;2.08;;;1.20;;
37781;SDS011;23621;50.878;4.584;2023-04-28T11:04:10;1.23;;;1.10;;
37781;SDS011;23621;50.878;4.584;2023-04-28T11:07:08;1.60;;;1.50;;
37781;SDS011;23621;50.878;4.584;2023-04-28T11:09:56;1.40;;;1.30;;
37781;SDS011;23621;50.878;4.584;2023-04-28T11:16:09;1.65;;;1.55;;
37781;SDS011;23621;50.878;4.584;2023-04-28T11:18:57;1.80;;;1.70;;
37781;SDS011;23621;50.878;4.584;2023-04-28T11:21:51;1.73;;;1.63;;
37781;SDS011;23621;50.878;4.584;2023-04-28T11:24:40;2.20;;;1.60;;
37781;SDS011;23621;50.878;4.584;2023-04-28T11:27:40;1.77;;;1.67;;
37781;SDS011;23621;50.878;4.584;2023-04-28T11:30:28;2.30;;;2.20;;
37781;SDS011;23621;50.878;4.584;2023-04-28T11:33:15;2.28;;;2.17;;
37781;SDS011;23621;50.878;4.584;2023-04-28T11:36:03;2.33;;;2.20;;
37781;SDS011;23621;50.878;4.584;2023-04-28T11:38:51;3.10;;;2.80;;
37781;SDS011;23621;50.878;4.584;2023-04-28T11:41:39;3.08;;;2.88;;
37781;SDS011;23621;50.878;4.584;2023-04-28T11:44:29;3.63;;;2.90;;
37781;SDS011;23621;50.878;4.584;2023-04-28T11:47:26;4.18;;;3.15;;
37781;SDS011;23621;50.878;4.584;2023-04-28T11:50:35;3.40;;;3.13;;
37781;SDS011;23621;50.878;4.584;2023-04-28T11:53:44;3.45;;;3.15;;
37781;SDS011;23621;50.878;4.584;2023-04-28T11:56:35;3.55;;;3.28;;
37781;SDS011;23621;50.878;4.584;2023-04-28T11:59:27;3.50;;;3.20;;
37781;SDS011;23621;50.878;4.584;2023-04-28T12:02:23;4.15;;;2.10;;
37781;SDS011;23621;50.878;4.584;2023-04-28T12:05:14;1.85;;;1.52;;
37781;SDS011;23621;50.878;4.584;2023-04-28T12:08:01;2.10;;;2.00;;
37781;SDS011;23621;50.878;4.584;2023-04-28T12:11:07;2.53;;;2.13;;
37781;SDS011;23621;50.878;4.584;2023-04-28T12:14:06;1.70;;;1.60;;
37781;SDS011;23621;50.878;4.584;2023-04-28T12:16:54;2.30;;;1.50;;
37781;SDS011;23621;50.878;4.584;2023-04-28T12:19:42;1.92;;;1.73;;
37781;SDS011;23621;50.878;4.584;2023-04-28T12:22:45;1.50;;;1.40;;
37781;SDS011;23621;50.878;4.584;2023-04-28T12:25:44;2.10;;;1.60;;
37781;SDS011;23621;50.878;4.584;2023-04-28T12:28:36;1.80;;;1.70;;
37781;SDS011;23621;50.878;4.584;2023-04-28T12:31:25;1.50;;;1.40;;
37781;SDS011;23621;50.878;4.584;2023-04-28T12:34:13;2.00;;;1.90;;
37781;SDS011;23621;50.878;4.584;2023-04-28T12:37:01;1.85;;;1.70;;
37781;SDS011;23621;50.878;4.584;2023-04-28T12:39:51;1.52;;;1.42;;
37781;SDS011;23621;50.878;4.584;2023-04-28T12:42:38;1.63;;;1.48;;
37781;SDS011;23621;50.878;4.584;2023-04-28T12:45:25;1.20;;;1.10;;
37781;SDS011;23621;50.878;4.584;2023-04-28T12:48:13;1.10;;;1.10;;
37781;SDS011;23621;50.878;4.584;2023-04-28T12:51:00;1.42;;;1.33;;
37781;SDS011;23621;50.878;4.584;2023-04-28T12:53:47;1.20;;;1.10;;
37781;SDS011;23621;50.878;4.584;2023-04-28T12:56:34;1.00;;;1.00;;
37781;SDS011;23621;50.878;4.584;2023-04-28T12:59:22;1.30;;;1.20;;
37781;SDS011;23621;50.878;4.584;2023-04-28T13:02:09;2.05;;;1.27;;
37781;SDS011;23621;50.878;4.584;2023-04-28T13:04:56;1.25;;;1.00;;
37781;SDS011;23621;50.878;4.584;2023-04-28T13:07:44;1.20;;;1.10;;
37781;SDS011;23621;50.878;4.584;2023-04-28T13:10:31;1.50;;;1.40;;
37781;SDS011;23621;50.878;4.584;2023-04-28T13:13:18;1.40;;;1.30;;
37781;SDS011;23621;50.878;4.584;2023-04-28T13:16:05;1.30;;;1.30;;
37781;SDS011;23621;50.878;4.584;2023-04-28T13:18:53;1.50;;;1.40;;
37781;SDS011;23621;50.878;4.584;2023-04-28T13:21:42;1.00;;;1.00;;
37781;SDS011;23621;50.878;4.584;2023-04-28T13:24:30;1.48;;;1.38;;
37781;SDS011;23621;50.878;4.584;2023-04-28T13:27:19;1.40;;;1.23;;
37781;SDS011;23621;50.878;4.584;2023-04-28T13:30:06;1.30;;;1.30;;
37781;SDS011;23621;50.878;4.584;2023-04-28T13:32:54;1.50;;;1.40;;
37781;SDS011;23621;50.878;4.584;2023-04-28T13:35:43;1.52;;;1.42;;
37781;SDS011;23621;50.878;4.584;2023-04-28T13:38:30;1.45;;;1.40;;
37781;SDS011;23621;50.878;4.584;2023-04-28T13:41:17;1.52;;;1.42;;
37781;SDS011;23621;50.878;4.584;2023-04-28T13:44:04;1.50;;;1.40;;
37781;SDS011;23621;50.878;4.584;2023-04-28T13:46:51;1.40;;;1.30;;
37781;SDS011;23621;50.878;4.584;2023-04-28T13:49:39;1.35;;;1.25;;
37781;SDS011;23621;50.878;4.584;2023-04-28T13:52:26;2.45;;;1.20;;
37781;SDS011;23621;50.878;4.584;2023-04-28T13:55:13;1.55;;;1.38;;
37781;SDS011;23621;50.878;4.584;2023-04-28T13:58:00;1.30;;;1.20;;
37781;SDS011;23621;50.878;4.584;2023-04-28T14:00:50;2.97;;;1.10;;
37781;SDS011;23621;50.878;4.584;2023-04-28T14:03:41;1.98;;;1.80;;
37781;SDS011;23621;50.878;4.584;2023-04-28T14:06:30;2.45;;;1.90;;
37781;SDS011;23621;50.878;4.584;2023-04-28T14:09:20;2.55;;;1.92;;
37781;SDS011;23621;50.878;4.584;2023-04-28T14:12:07;2.08;;;1.70;;
37781;SDS011;23621;50.878;4.584;2023-04-28T14:14:55;4.47;;;2.42;;
37781;SDS011;23621;50.878;4.584;2023-04-28T14:17:42;3.60;;;2.20;;
37781;SDS011;23621;50.878;4.584;2023-04-28T14:20:29;2.80;;;2.05;;
37781;SDS011;23621;50.878;4.584;2023-04-28T14:23:17;1.50;;;1.40;;
37781;SDS011;23621;50.878;4.584;2023-04-28T14:26:04;1.45;;;1.35;;
37781;SDS011;23621;50.878;4.584;2023-04-28T14:28:52;1.40;;;1.30;;
37781;SDS011;23621;50.878;4.584;2023-04-28T14:31:39;1.80;;;1.23;;
37781;SDS011;23621;50.878;4.584;2023-04-28T14:34:27;2.42;;;1.35;;
37781;SDS011;23621;50.878;4.584;2023-04-28T14:37:14;1.50;;;1.40;;
37781;SDS011;23621;50.878;4.584;2023-04-28T14:40:03;1.30;;;1.20;;
37781;SDS011;23621;50.878;4.584;2023-04-28T14:42:51;1.50;;;1.40;;
37781;SDS011;23621;50.878;4.584;2023-04-28T14:45:38;1.52;;;1.42;;
37781;SDS011;23621;50.878;4.584;2023-04-28T14:48:26;1.45;;;1.38;;
37781;SDS011;23621;50.878;4.584;2023-04-28T14:51:13;1.35;;;1.25;;
37781;SDS011;23621;50.878;4.584;2023-04-28T14:54:01;1.42;;;1.33;;
37781;SDS011;23621;50.878;4.584;2023-04-28T14:56:48;1.17;;;1.17;;
37781;SDS011;23621;50.878;4.584;2023-04-28T14:59:36;1.27;;;1.27;;
37781;SDS011;23621;50.878;4.584;2023-04-28T15:02:23;1.30;;;1.20;;
37781;SDS011;23621;50.878;4.584;2023-04-28T15:05:14;1.40;;;1.30;;
37781;SDS011;23621;50.878;4.584;2023-04-28T15:08:02;1.38;;;1.38;;
37781;SDS011;23621;50.878;4.584;2023-04-28T15:10:49;1.30;;;1.20;;
37781;SDS011;23621;50.878;4.584;2023-04-28T15:13:36;1.13;;;1.13;;
37781;SDS011;23621;50.878;4.584;2023-04-28T15:16:26;1.10;;;1.10;;
37781;SDS011;23621;50.878;4.584;2023-04-28T15:19:13;1.20;;;1.10;;
37781;SDS011;23621;50.878;4.584;2023-04-28T15:22:00;1.00;;;1.00;;
37781;SDS011;23621;50.878;4.584;2023-04-28T15:24:49;1.23;;;0.98;;
37781;SDS011;23621;50.878;4.584;2023-04-28T15:27:37;2.15;;;1.10;;
37781;SDS011;23621;50.878;4.584;2023-04-28T15:30:24;1.40;;;1.10;;
37781;SDS011;23621;50.878;4.584;2023-04-28T15:33:11;2.67;;;1.00;;
37781;SDS011;23621;50.878;4.584;2023-04-28T15:36:03;0.95;;;0.95;;
37781;SDS011;23621;50.878;4.584;2023-04-28T15:38:50;1.15;;;1.05;;
37781;SDS011;23621;50.878;4.584;2023-04-28T15:41:38;3.10;;;1.10;;
37781;SDS011;23621;50.878;4.584;2023-04-28T15:44:25;1.05;;;1.02;;
37781;SDS011;23621;50.878;4.584;2023-04-28T15:47:16;1.17;;;1.10;;
37781;SDS011;23621;50.878;4.584;2023-04-28T15:50:03;1.60;;;1.50;;
37781;SDS011;23621;50.878;4.584;2023-04-28T15:52:51;1.08;;;1.08;;
37781;SDS011;23621;50.878;4.584;2023-04-28T15:55:39;3.08;;;1.08;;
37781;SDS011;23621;50.878;4.584;2023-04-28T15:58:26;0.93;;;0.93;;
37781;SDS011;23621;50.878;4.584;2023-04-28T16:01:13;1.30;;;0.80;;
37781;SDS011;23621;50.878;4.584;2023-04-28T16:04:01;0.80;;;0.80;;
37781;SDS011;23621;50.878;4.584;2023-04-28T16:06:48;1.33;;;0.85;;
37781;SDS011;23621;50.878;4.584;2023-04-28T16:09:37;0.90;;;0.90;;
37781;SDS011;23621;50.878;4.584;2023-04-28T16:12:24;0.82;;;0.82;;
37781;SDS011;23621;50.878;4.584;2023-04-28T16:15:12;1.58;;;0.90;;
37781;SDS011;23621;50.878;4.584;2023-04-28T16:17:59;1.30;;;0.90;;
37781;SDS011;23621;50.878;4.584;2023-04-28T16:20:47;1.60;;;0.80;;
37781;SDS011;23621;50.878;4.584;2023-04-28T16:23:35;1.05;;;1.05;;
37781;SDS011;23621;50.878;4.584;2023-04-28T16:26:23;4.20;;;1.00;;
37781;SDS011;23621;50.878;4.584;2023-04-28T16:29:10;1.02;;;1.00;;
37781;SDS011;23621;50.878;4.584;2023-04-28T16:32:00;1.08;;;0.98;;
37781;SDS011;23621;50.878;4.584;2023-04-28T16:34:47;0.85;;;0.85;;
37781;SDS011;23621;50.878;4.584;2023-04-28T16:37:35;1.20;;;1.10;;
37781;SDS011;23621;50.878;4.584;2023-04-28T16:40:24;1.80;;;1.20;;
37781;SDS011;23621;50.878;4.584;2023-04-28T16:43:11;1.67;;;1.23;;
37781;SDS011;23621;50.878;4.584;2023-04-28T16:45:58;1.25;;;0.95;;
37781;SDS011;23621;50.878;4.584;2023-04-28T16:48:46;1.23;;;0.98;;
37781;SDS011;23621;50.878;4.584;2023-04-28T16:51:33;1.38;;;1.27;;
37781;SDS011;23621;50.878;4.584;2023-04-28T16:54:21;1.33;;;1.20;;
37781;SDS011;23621;50.878;4.584;2023-04-28T16:57:08;1.85;;;1.45;;
37781;SDS011;23621;50.878;4.584;2023-04-28T16:59:55;1.30;;;1.20;;
37781;SDS011;23621;50.878;4.584;2023-04-28T17:02:42;1.50;;;1.17;;
37781;SDS011;23621;50.878;4.584;2023-04-28T17:05:33;2.20;;;1.20;;
37781;SDS011;23621;50.878;4.584;2023-04-28T17:08:20;1.92;;;1.30;;
37781;SDS011;23621;50.878;4.584;2023-04-28T17:11:07;1.27;;;1.17;;
37781;SDS011;23621;50.878;4.584;2023-04-28T17:13:55;1.77;;;1.17;;
37781;SDS011;23621;50.878;4.584;2023-04-28T17:16:42;1.42;;;1.20;;